Time;durP1;ratioP1;P1;durP2;ratioP2;P2;SDS_P1;SDS_P2;PMS_P1;PMS_P2;Temp;Humidity;BMP_temperature;BMP_pressure;BME280_temperature;BME280_humidity;BME280_pressure;Samples;Min_cycle;Max_cycle;Signal;HPM_P1;HPM_P2
2023/10/25 00:00:19;;;;;;;11.82;11.32;;;;;;;;;;5071652;28;20024;-63
2023/10/25 00:02:44;;;;;;;12.40;11.80;;;;;;;;;;5069452;28;20512;-62
2023/10/25 00:05:09;;;;;;;11.75;11.25;;;;;;;;;;5065799;28;20029;-63
2023/10/25 00:07:35;;;;;;;11.80;11.30;;;;;;;;;;5074129;28;20382;-63
2023/10/25 00:10:01;;;;;;;12.00;11.40;;;;;;;;;;5070953;28;20118;-63
2023/10/25 00:12:26;;;;;;;11.98;11.43;;;;;;;;;;5061623;28;20544;-62
2023/10/25 00:14:53;;;;;;;11.85;11.35;;;;;;;;;;5069428;28;20045;-63
2023/10/25 00:17:18;;;;;;;11.57;11.07;;;;;;;;;;5066477;28;20243;-62
2023/10/25 00:19:43;;;;;;;13.07;12.48;;;;;;;;;;5063572;28;20397;-63
2023/10/25 00:22:09;;;;;;;12.05;11.48;;;;;;;;;;5064392;28;20017;-64
2023/10/25 00:24:34;;;;;;;11.55;11.05;;;;;;;;;;5073775;28;20028;-63
2023/10/25 00:26:59;;;;;;;11.45;10.95;;;;;;;;;;5069713;28;20025;-63
2023/10/25 00:29:25;;;;;;;11.68;11.18;;;;;;;;;;5058479;28;20021;-65
2023/10/25 00:31:50;;;;;;;12.00;11.40;;;;;;;;;;5064702;28;20448;-64
2023/10/25 00:34:15;;;;;;;12.13;11.52;;;;;;;;;;5059618;28;20036;-63
2023/10/25 00:36:41;;;;;;;11.40;10.90;;;;;;;;;;5060435;28;20470;-63
2023/10/25 00:39:06;;;;;;;11.75;11.25;;;;;;;;;;5063363;28;20033;-65
2023/10/25 00:41:31;;;;;;;11.27;10.77;;;;;;;;;;5070320;28;20044;-63
2023/10/25 00:43:57;;;;;;;11.77;11.27;;;;;;;;;;5063056;28;20021;-63
2023/10/25 00:46:26;;;;;;;11.95;11.38;;;;;;;;;;5070646;28;20048;-63
2023/10/25 00:48:53;;;;;;;11.50;11.00;;;;;;;;;;5064011;28;20029;-62
2023/10/25 00:51:19;;;;;;;11.57;11.07;;;;;;;;;;5063642;28;20401;-64
2023/10/25 00:53:49;;;;;;;11.52;11.02;;;;;;;;;;5064699;28;20028;-64
2023/10/25 00:56:16;;;;;;;11.40;10.90;;;;;;;;;;5066985;28;20482;-63
2023/10/25 00:58:43;;;;;;;11.68;11.18;;;;;;;;;;5065037;28;20029;-64
2023/10/25 01:01:09;;;;;;;11.95;11.40;;;;;;;;;;5064739;28;20028;-64
2023/10/25 01:03:34;;;;;;;11.57;11.07;;;;;;;;;;5062840;28;20028;-63
2023/10/25 01:06:02;;;;;;;11.70;11.20;;;;;;;;;;5061575;28;20055;-64
2023/10/25 01:08:27;;;;;;;12.20;11.60;;;;;;;;;;5069874;28;20503;-63
2023/10/25 01:10:53;;;;;;;11.77;11.27;;;;;;;;;;5067220;28;20028;-64
2023/10/25 01:13:19;;;;;;;11.65;11.15;;;;;;;;;;5066576;28;20071;-64
2023/10/25 01:15:45;;;;;;;11.45;10.95;;;;;;;;;;5074428;28;20013;-63
2023/10/25 01:18:10;;;;;;;11.45;10.95;;;;;;;;;;5067704;28;20154;-65
2023/10/25 01:20:36;;;;;;;11.80;11.30;;;;;;;;;;5070256;28;20494;-63
2023/10/25 01:23:01;;;;;;;11.73;11.23;;;;;;;;;;5061429;28;20021;-63
2023/10/25 01:25:26;;;;;;;11.70;11.20;;;;;;;;;;5062122;28;20077;-62
2023/10/25 01:27:52;;;;;;;12.13;11.52;;;;;;;;;;5067271;28;20021;-63
2023/10/25 01:30:17;;;;;;;11.60;11.10;;;;;;;;;;5059471;28;20047;-64
2023/10/25 01:32:42;;;;;;;11.73;11.23;;;;;;;;;;5061875;28;20035;-65
2023/10/25 01:35:08;;;;;;;11.77;11.27;;;;;;;;;;5067010;28;20196;-64
2023/10/25 01:37:33;;;;;;;11.70;11.20;;;;;;;;;;5064469;28;20398;-63
2023/10/25 01:39:59;;;;;;;11.63;11.13;;;;;;;;;;5054016;28;20025;-63
2023/10/25 01:42:24;;;;;;;11.60;11.10;;;;;;;;;;5064861;28;20442;-64
2023/10/25 01:44:49;;;;;;;11.40;10.90;;;;;;;;;;5061470;28;20099;-63
2023/10/25 01:47:15;;;;;;;11.57;11.07;;;;;;;;;;5064240;28;20024;-64
2023/10/25 01:49:41;;;;;;;11.80;11.30;;;;;;;;;;5065418;28;20023;-64
2023/10/25 01:52:07;;;;;;;12.00;11.40;;;;;;;;;;5064388;28;20021;-64
2023/10/25 01:54:33;;;;;;;11.20;10.70;;;;;;;;;;5063272;28;20040;-64
2023/10/25 01:56:58;;;;;;;11.68;11.18;;;;;;;;;;5063381;28;20028;-63
2023/10/25 01:59:23;;;;;;;11.85;11.30;;;;;;;;;;5068499;28;20392;-64
2023/10/25 02:01:49;;;;;;;11.52;11.02;;;;;;;;;;5059971;28;20035;-64
2023/10/25 02:04:14;;;;;;;11.57;11.07;;;;;;;;;;5076840;28;20027;-65
2023/10/25 02:06:40;;;;;;;11.35;10.85;;;;;;;;;;5066235;28;20017;-64
2023/10/25 02:09:05;;;;;;;11.20;10.70;;;;;;;;;;5070789;28;20024;-64
2023/10/25 02:11:30;;;;;;;11.90;11.40;;;;;;;;;;5053159;28;20482;-65
2023/10/25 02:13:56;;;;;;;11.70;11.20;;;;;;;;;;5059943;28;20053;-67
2023/10/25 02:16:23;;;;;;;11.55;11.05;;;;;;;;;;5070377;28;20370;-64
2023/10/25 02:18:48;;;;;;;12.02;11.43;;;;;;;;;;5061407;28;20040;-64
2023/10/25 02:21:13;;;;;;;11.23;10.73;;;;;;;;;;5069182;28;20025;-64
2023/10/25 02:23:39;;;;;;;11.20;10.70;;;;;;;;;;5065696;28;20029;-63
2023/10/25 02:26:04;;;;;;;11.80;11.30;;;;;;;;;;5068701;28;20443;-63
2023/10/25 02:28:30;;;;;;;11.75;11.23;;;;;;;;;;5064661;28;20726;-64
2023/10/25 02:30:55;;;;;;;11.30;10.80;;;;;;;;;;5067499;28;20036;-63
2023/10/25 02:33:20;;;;;;;11.38;10.88;;;;;;;;;;5064132;28;20454;-63
2023/10/25 02:35:46;;;;;;;11.57;11.07;;;;;;;;;;5064905;28;20032;-63
2023/10/25 02:38:11;;;;;;;11.95;11.40;;;;;;;;;;5062337;28;20020;-64
2023/10/25 02:40:37;;;;;;;11.52;11.02;;;;;;;;;;5065542;28;20050;-65
2023/10/25 02:43:02;;;;;;;11.50;11.00;;;;;;;;;;5066354;28;20082;-64
2023/10/25 02:45:27;;;;;;;11.43;10.93;;;;;;;;;;5064534;28;20032;-64
2023/10/25 02:47:54;;;;;;;11.15;10.65;;;;;;;;;;5059771;28;20044;-64
2023/10/25 02:50:20;;;;;;;11.57;11.07;;;;;;;;;;5063331;28;20021;-63
2023/10/25 02:52:48;;;;;;;11.60;11.10;;;;;;;;;;5064546;28;20031;-63
2023/10/25 02:55:15;;;;;;;12.15;11.55;;;;;;;;;;5069914;28;20020;-65
2023/10/25 02:57:40;;;;;;;11.32;10.82;;;;;;;;;;5056597;28;20024;-65
2023/10/25 03:00:06;;;;;;;11.38;10.88;;;;;;;;;;5062481;28;20500;-64
2023/10/25 03:02:31;;;;;;;12.25;11.65;;;;;;;;;;5060638;28;20095;-63
2023/10/25 03:04:58;;;;;;;12.02;11.43;;;;;;;;;;5062452;28;20017;-64
2023/10/25 03:07:23;;;;;;;11.70;11.20;;;;;;;;;;5058175;28;20093;-65
2023/10/25 03:09:48;;;;;;;11.30;10.80;;;;;;;;;;5065765;28;20029;-65
2023/10/25 03:12:14;;;;;;;11.60;11.10;;;;;;;;;;5066272;28;20056;-64
2023/10/25 03:14:39;;;;;;;12.02;11.43;;;;;;;;;;5060628;28;20052;-66
2023/10/25 03:17:04;;;;;;;11.80;11.30;;;;;;;;;;5061807;28;20112;-64
2023/10/25 03:19:30;;;;;;;11.45;10.95;;;;;;;;;;5063245;28;20097;-63
2023/10/25 03:21:56;;;;;;;12.00;11.40;;;;;;;;;;5061017;28;20478;-65
2023/10/25 03:24:21;;;;;;;11.60;11.10;;;;;;;;;;5061813;28;20036;-63
2023/10/25 03:26:46;;;;;;;11.57;11.07;;;;;;;;;;5063573;28;20028;-64
2023/10/25 03:29:12;;;;;;;11.80;11.20;;;;;;;;;;5066834;28;20096;-65
2023/10/25 03:31:38;;;;;;;11.68;11.18;;;;;;;;;;5066611;28;20025;-64
2023/10/25 03:34:03;;;;;;;12.02;11.43;;;;;;;;;;5062437;28;20095;-64
2023/10/25 03:36:29;;;;;;;11.40;10.90;;;;;;;;;;5064296;28;20060;-64
2023/10/25 03:38:54;;;;;;;11.30;10.80;;;;;;;;;;5064855;28;20030;-64
2023/10/25 03:41:19;;;;;;;11.50;11.00;;;;;;;;;;5066170;28;20056;-64
2023/10/25 03:43:45;;;;;;;11.70;11.20;;;;;;;;;;5070398;28;20103;-63
2023/10/25 03:46:10;;;;;;;11.25;10.75;;;;;;;;;;5069232;28;20101;-64
2023/10/25 03:48:36;;;;;;;11.88;11.35;;;;;;;;;;5067646;28;20473;-64
2023/10/25 03:51:02;;;;;;;11.50;11.00;;;;;;;;;;5067679;28;20698;-63
2023/10/25 03:53:27;;;;;;;12.00;11.40;;;;;;;;;;5075441;28;20111;-64
2023/10/25 03:55:56;;;;;;;12.00;11.43;;;;;;;;;;5071844;28;20039;-64
2023/10/25 03:58:24;;;;;;;12.40;11.80;;;;;;;;;;5069108;28;20028;-64
2023/10/25 04:01:00;;;;;;;12.00;11.40;;;;;;;;;;5072719;28;20024;-64
2023/10/25 04:03:25;;;;;;;11.73;11.23;;;;;;;;;;5062534;28;20539;-65
2023/10/25 04:05:52;;;;;;;12.40;11.80;;;;;;;;;;5066047;28;20050;-64
2023/10/25 04:08:19;;;;;;;11.90;11.35;;;;;;;;;;5067164;28;20025;-64
2023/10/25 04:10:54;;;;;;;12.18;11.57;;;;;;;;;;5065679;28;20050;-64
2023/10/25 04:13:20;;;;;;;11.75;11.25;;;;;;;;;;5060685;28;20037;-64
2023/10/25 04:15:56;;;;;;;12.38;11.77;;;;;;;;;;5066007;28;20020;-64
2023/10/25 04:18:21;;;;;;;12.45;11.85;;;;;;;;;;5065548;28;20401;-64
2023/10/25 04:20:47;;;;;;;11.98;11.38;;;;;;;;;;5063366;28;20028;-65
2023/10/25 04:23:12;;;;;;;14.20;13.50;;;;;;;;;;5067052;28;20551;-65
2023/10/25 04:25:37;;;;;;;12.02;11.43;;;;;;;;;;5067103;28;20555;-65
2023/10/25 04:28:03;;;;;;;11.75;11.25;;;;;;;;;;5061124;28;20035;-64
2023/10/25 04:30:28;;;;;;;12.70;12.10;;;;;;;;;;5058109;28;20111;-66
2023/10/25 04:32:53;;;;;;;12.00;11.40;;;;;;;;;;5054845;28;20327;-64
2023/10/25 04:35:19;;;;;;;11.73;11.18;;;;;;;;;;5062989;28;20115;-64
2023/10/25 04:37:44;;;;;;;12.50;11.90;;;;;;;;;;5060246;28;20028;-66
2023/10/25 04:40:10;;;;;;;12.10;11.50;;;;;;;;;;5068116;28;20024;-66
2023/10/25 04:42:35;;;;;;;12.00;11.40;;;;;;;;;;5059505;28;20038;-65
2023/10/25 04:45:00;;;;;;;12.35;11.75;;;;;;;;;;5062066;28;20024;-65
2023/10/25 04:47:26;;;;;;;11.63;11.13;;;;;;;;;;5063029;28;20033;-65
2023/10/25 04:49:51;;;;;;;11.55;11.05;;;;;;;;;;5056750;28;20032;-64
2023/10/25 04:52:18;;;;;;;12.25;11.65;;;;;;;;;;5058716;28;20039;-65
2023/10/25 04:54:44;;;;;;;12.82;12.23;;;;;;;;;;5066263;28;20028;-66
2023/10/25 04:57:09;;;;;;;11.50;11.00;;;;;;;;;;5065677;28;20009;-64
2023/10/25 04:59:34;;;;;;;12.90;12.30;;;;;;;;;;5057646;28;20497;-64
2023/10/25 05:02:00;;;;;;;12.32;11.73;;;;;;;;;;5057855;28;20031;-65
2023/10/25 05:04:25;;;;;;;12.23;11.63;;;;;;;;;;5058924;28;20031;-64
2023/10/25 05:06:50;;;;;;;13.05;12.45;;;;;;;;;;5058749;28;20032;-64
2023/10/25 05:09:16;;;;;;;12.70;12.10;;;;;;;;;;5065514;28;20020;-64
2023/10/25 05:11:45;;;;;;;11.52;11.02;;;;;;;;;;5059942;28;20367;-64
2023/10/25 05:14:11;;;;;;;12.63;12.02;;;;;;;;;;5060267;28;20044;-64
2023/10/25 05:16:36;;;;;;;12.13;11.52;;;;;;;;;;5061694;28;20505;-64
2023/10/25 05:19:01;;;;;;;12.63;12.02;;;;;;;;;;5059835;28;20107;-64
2023/10/25 05:21:28;;;;;;;12.48;11.88;;;;;;;;;;5060979;28;20078;-64
2023/10/25 05:23:54;;;;;;;11.68;11.18;;;;;;;;;;5060848;28;20105;-64
2023/10/25 05:26:19;;;;;;;11.68;11.18;;;;;;;;;;5069870;28;21322;-65
2023/10/25 05:28:44;;;;;;;11.85;11.35;;;;;;;;;;5062341;28;20481;-64
2023/10/25 05:31:12;;;;;;;12.73;12.13;;;;;;;;;;5058887;28;20024;-65
2023/10/25 05:33:38;;;;;;;12.52;11.93;;;;;;;;;;5072690;28;20135;-64
2023/10/25 05:36:03;;;;;;;12.38;11.77;;;;;;;;;;5075249;28;20100;-64
2023/10/25 05:38:29;;;;;;;11.60;11.10;;;;;;;;;;5060920;28;20040;-65
2023/10/25 05:40:54;;;;;;;12.90;12.30;;;;;;;;;;5064824;28;20028;-64
2023/10/25 05:43:23;;;;;;;12.63;12.02;;;;;;;;;;5061996;28;20086;-65
2023/10/25 05:45:48;;;;;;;12.10;11.50;;;;;;;;;;5064310;28;20056;-65
2023/10/25 05:48:15;;;;;;;12.57;11.98;;;;;;;;;;5069274;28;20059;-65
2023/10/25 05:50:44;;;;;;;11.57;11.07;;;;;;;;;;5069073;28;20493;-64
2023/10/25 05:53:10;;;;;;;12.07;11.48;;;;;;;;;;5065125;28;20378;-65
2023/10/25 05:55:36;;;;;;;12.60;12.00;;;;;;;;;;5066063;28;20770;-64
2023/10/25 05:58:02;;;;;;;12.10;11.50;;;;;;;;;;5069554;28;20028;-67
2023/10/25 06:00:27;;;;;;;12.45;11.85;;;;;;;;;;5059190;28;20029;-64
2023/10/25 06:02:54;;;;;;;12.50;11.90;;;;;;;;;;5059799;28;20057;-64
2023/10/25 06:05:19;;;;;;;11.70;11.20;;;;;;;;;;5065295;28;20119;-65
2023/10/25 06:07:45;;;;;;;13.85;13.15;;;;;;;;;;5060541;28;20100;-65
2023/10/25 06:10:10;;;;;;;11.77;11.25;;;;;;;;;;5062318;28;20104;-65
2023/10/25 06:12:36;;;;;;;11.55;11.05;;;;;;;;;;5063306;28;20054;-65
2023/10/25 06:15:04;;;;;;;12.88;12.27;;;;;;;;;;5061424;28;20112;-65
2023/10/25 06:17:29;;;;;;;12.23;11.63;;;;;;;;;;5058466;28;20908;-65
2023/10/25 06:19:54;;;;;;;12.32;11.73;;;;;;;;;;5065448;28;20032;-65
2023/10/25 06:22:20;;;;;;;11.55;11.05;;;;;;;;;;5062530;28;20028;-65
2023/10/25 06:24:45;;;;;;;11.60;11.10;;;;;;;;;;5061564;28;20108;-65
2023/10/25 06:27:10;;;;;;;12.60;12.00;;;;;;;;;;5069081;28;20075;-65
2023/10/25 06:29:36;;;;;;;12.77;12.18;;;;;;;;;;5066271;28;20154;-62
2023/10/25 06:32:01;;;;;;;13.48;12.77;;;;;;;;;;5049386;28;20028;-67
2023/10/25 06:34:26;;;;;;;13.18;12.55;;;;;;;;;;5050413;28;20388;-68
2023/10/25 06:36:52;;;;;;;13.57;12.88;;;;;;;;;;5056747;28;20035;-67
2023/10/25 06:39:17;;;;;;;14.00;13.30;;;;;;;;;;5056965;28;20024;-67
2023/10/25 06:41:43;;;;;;;13.57;12.88;;;;;;;;;;5056482;28;20059;-67
2023/10/25 06:44:09;;;;;;;13.15;12.48;;;;;;;;;;5062702;28;20024;-67
2023/10/25 06:46:34;;;;;;;12.52;11.93;;;;;;;;;;5048614;28;20564;-68
2023/10/25 06:49:00;;;;;;;12.98;12.38;;;;;;;;;;5056985;28;20064;-69
2023/10/25 06:51:25;;;;;;;12.52;11.93;;;;;;;;;;5057647;28;20046;-67
2023/10/25 06:53:51;;;;;;;12.63;12.02;;;;;;;;;;5058770;28;20043;-67
2023/10/25 06:56:17;;;;;;;12.25;11.65;;;;;;;;;;5061835;28;20089;-68
2023/10/25 06:58:42;;;;;;;12.85;12.25;;;;;;;;;;5060922;28;20170;-67
2023/10/25 07:01:10;;;;;;;12.57;11.98;;;;;;;;;;5058405;28;20028;-67
2023/10/25 07:03:35;;;;;;;13.02;12.43;;;;;;;;;;5056536;28;20028;-67
2023/10/25 07:06:03;;;;;;;12.40;11.80;;;;;;;;;;5057812;28;20393;-67
2023/10/25 07:08:29;;;;;;;12.73;12.13;;;;;;;;;;5054996;28;20028;-68
2023/10/25 07:10:54;;;;;;;12.57;11.98;;;;;;;;;;5061645;28;20021;-69
2023/10/25 07:13:20;;;;;;;12.98;12.38;;;;;;;;;;5057107;28;20422;-68
2023/10/25 07:15:45;;;;;;;12.98;12.38;;;;;;;;;;5056564;28;20077;-67
2023/10/25 07:18:10;;;;;;;13.35;12.70;;;;;;;;;;5050673;28;20043;-68
2023/10/25 07:20:36;;;;;;;11.88;11.32;;;;;;;;;;5056348;28;20032;-67
2023/10/25 07:23:02;;;;;;;12.95;12.35;;;;;;;;;;5060940;28;20555;-67
2023/10/25 07:25:28;;;;;;;12.65;12.05;;;;;;;;;;5087741;27;20128;-67
2023/10/25 07:27:53;;;;;;;12.63;12.02;;;;;;;;;;5064274;28;20028;-69
2023/10/25 07:30:18;;;;;;;13.68;12.98;;;;;;;;;;5057505;28;21069;-68
2023/10/25 07:32:45;;;;;;;13.27;12.68;;;;;;;;;;5053595;28;20075;-68
2023/10/25 07:35:10;;;;;;;13.05;12.45;;;;;;;;;;5057865;28;20095;-68
2023/10/25 07:37:35;;;;;;;12.45;11.85;;;;;;;;;;5058663;28;20112;-69
2023/10/25 07:40:02;;;;;;;13.15;12.55;;;;;;;;;;5061938;28;20033;-69
2023/10/25 07:42:27;;;;;;;12.02;11.48;;;;;;;;;;5061930;28;20020;-68
2023/10/25 07:44:53;;;;;;;12.82;12.23;;;;;;;;;;5057032;28;20491;-67
2023/10/25 07:47:20;;;;;;;13.77;13.07;;;;;;;;;;5054237;28;20507;-67
2023/10/25 07:49:45;;;;;;;12.82;12.23;;;;;;;;;;5057518;28;20044;-68
2023/10/25 07:52:11;;;;;;;12.95;12.35;;;;;;;;;;5060043;28;20477;-67
2023/10/25 07:54:37;;;;;;;12.55;11.95;;;;;;;;;;5059874;28;20081;-68
2023/10/25 07:57:02;;;;;;;12.45;11.85;;;;;;;;;;5063503;28;20044;-66
2023/10/25 07:59:27;;;;;;;12.20;11.60;;;;;;;;;;5058157;28;20606;-68
2023/10/25 08:01:54;;;;;;;14.23;13.52;;;;;;;;;;5060667;28;20029;-68
2023/10/25 08:04:20;;;;;;;13.23;12.63;;;;;;;;;;5061448;28;20033;-68
2023/10/25 08:06:45;;;;;;;13.00;12.40;;;;;;;;;;5088700;28;20027;-68
2023/10/25 08:09:10;;;;;;;13.15;12.55;;;;;;;;;;5064712;28;20115;-66
2023/10/25 08:11:37;;;;;;;12.98;12.38;;;;;;;;;;5066009;28;20051;-67
2023/10/25 08:14:02;;;;;;;13.63;12.93;;;;;;;;;;5063880;28;20067;-66
2023/10/25 08:16:28;;;;;;;13.20;12.60;;;;;;;;;;5056952;28;20024;-67
2023/10/25 08:18:53;;;;;;;13.85;13.15;;;;;;;;;;5059276;28;20101;-68
2023/10/25 08:21:19;;;;;;;13.32;12.73;;;;;;;;;;5058331;28;20033;-68
2023/10/25 08:23:51;;;;;;;13.27;12.68;;;;;;;;;;5059711;28;20401;-66
2023/10/25 08:26:17;;;;;;;12.80;12.20;;;;;;;;;;5060247;28;20033;-66
2023/10/25 08:28:43;;;;;;;12.82;12.23;;;;;;;;;;5059244;28;20025;-67
2023/10/25 08:31:11;;;;;;;12.70;12.10;;;;;;;;;;5059938;28;20020;-66
2023/10/25 08:33:37;;;;;;;12.88;12.27;;;;;;;;;;5054183;28;20023;-64
2023/10/25 08:36:02;;;;;;;13.20;12.60;;;;;;;;;;5067364;28;20105;-67
2023/10/25 08:38:28;;;;;;;13.40;12.80;;;;;;;;;;5059524;28;20817;-67
2023/10/25 08:41:00;;;;;;;13.77;13.07;;;;;;;;;;5052773;28;20456;-67
2023/10/25 08:43:25;;;;;;;12.68;12.07;;;;;;;;;;5057101;28;20032;-69
2023/10/25 08:45:53;;;;;;;12.75;12.15;;;;;;;;;;5058222;28;20379;-68
2023/10/25 08:48:18;;;;;;;12.27;11.68;;;;;;;;;;5063019;28;20028;-68
2023/10/25 08:50:44;;;;;;;13.30;12.70;;;;;;;;;;5060645;28;20028;-66
2023/10/25 08:53:09;;;;;;;13.35;12.75;;;;;;;;;;5058188;28;20021;-67
2023/10/25 08:55:34;;;;;;;12.90;12.30;;;;;;;;;;5068904;28;20571;-67
2023/10/25 08:58:00;;;;;;;13.10;12.50;;;;;;;;;;5062185;28;20489;-67
2023/10/25 09:00:28;;;;;;;12.85;12.25;;;;;;;;;;5057852;28;20123;-67
2023/10/25 09:02:54;;;;;;;12.65;12.05;;;;;;;;;;5058301;28;20043;-67
2023/10/25 09:05:19;;;;;;;13.20;12.60;;;;;;;;;;5067859;28;20103;-66
2023/10/25 09:07:44;;;;;;;13.05;12.45;;;;;;;;;;5054145;28;20048;-67
2023/10/25 09:10:11;;;;;;;12.55;11.95;;;;;;;;;;5063593;28;20031;-66
2023/10/25 09:12:36;;;;;;;13.57;12.98;;;;;;;;;;5050750;28;20110;-66
2023/10/25 09:15:03;;;;;;;12.73;12.13;;;;;;;;;;5059965;28;20061;-66
2023/10/25 09:17:30;;;;;;;13.07;12.48;;;;;;;;;;5057039;28;20735;-67
2023/10/25 09:19:55;;;;;;;13.50;12.90;;;;;;;;;;5060215;28;20035;-66
2023/10/25 09:22:25;;;;;;;12.60;12.00;;;;;;;;;;5055253;28;20125;-68
2023/10/25 09:24:51;;;;;;;13.13;12.52;;;;;;;;;;5063525;28;20029;-68
2023/10/25 09:27:20;;;;;;;13.38;12.77;;;;;;;;;;5053246;28;20109;-66
2023/10/25 09:29:45;;;;;;;12.73;12.13;;;;;;;;;;5058376;28;20024;-65
2023/10/25 09:32:10;;;;;;;12.68;12.07;;;;;;;;;;5060317;28;20103;-66
2023/10/25 09:34:36;;;;;;;12.70;12.10;;;;;;;;;;5057054;28;20784;-65
2023/10/25 09:37:03;;;;;;;13.07;12.48;;;;;;;;;;5050385;28;20029;-65
2023/10/25 09:39:29;;;;;;;13.18;12.57;;;;;;;;;;5054770;28;20036;-65
2023/10/25 09:41:55;;;;;;;14.10;13.40;;;;;;;;;;5054681;28;20046;-64
2023/10/25 09:44:21;;;;;;;12.77;12.18;;;;;;;;;;5055272;28;20099;-65
2023/10/25 09:46:47;;;;;;;12.82;12.23;;;;;;;;;;5056967;28;20029;-64
2023/10/25 09:49:14;;;;;;;13.88;13.20;;;;;;;;;;5052956;28;20036;-64
2023/10/25 09:51:40;;;;;;;13.27;12.68;;;;;;;;;;5062596;28;20055;-64
2023/10/25 09:54:08;;;;;;;13.57;12.98;;;;;;;;;;5059388;28;20021;-65
2023/10/25 09:56:34;;;;;;;13.82;13.15;;;;;;;;;;5052898;28;20041;-65
2023/10/25 09:59:00;;;;;;;13.50;12.90;;;;;;;;;;5056955;28;20029;-63
2023/10/25 10:01:25;;;;;;;13.43;12.82;;;;;;;;;;5053776;28;20028;-65
2023/10/25 10:04:00;;;;;;;12.88;12.27;;;;;;;;;;5056569;28;20097;-66
2023/10/25 10:06:44;;;;;;;13.43;12.82;;;;;;;;;;5052773;28;20550;-66
2023/10/25 10:09:28;;;;;;;14.33;13.63;;;;;;;;;;5053177;28;20090;-67
2023/10/25 10:11:56;;;;;;;12.77;12.18;;;;;;;;;;5051246;28;20021;-66
2023/10/25 10:14:28;;;;;;;13.07;12.48;;;;;;;;;;5055372;28;20803;-68
2023/10/25 10:16:58;;;;;;;13.23;12.63;;;;;;;;;;5054513;28;20067;-65
2023/10/25 10:19:23;;;;;;;12.70;12.10;;;;;;;;;;5058370;28;20036;-67
2023/10/25 10:22:02;;;;;;;12.98;12.38;;;;;;;;;;5057829;28;20399;-68
2023/10/25 10:24:43;;;;;;;12.98;12.38;;;;;;;;;;5066215;28;20385;-67
2023/10/25 10:27:09;;;;;;;13.40;12.80;;;;;;;;;;5056098;28;20079;-68
2023/10/25 10:29:34;;;;;;;12.98;12.38;;;;;;;;;;5055710;28;20028;-67
2023/10/25 10:32:01;;;;;;;12.70;12.10;;;;;;;;;;5064788;28;20097;-68
2023/10/25 10:34:39;;;;;;;13.23;12.63;;;;;;;;;;5054814;28;20629;-68
2023/10/25 10:37:08;;;;;;;15.02;14.30;;;;;;;;;;5053631;28;20954;-68
2023/10/25 10:39:35;;;;;;;13.13;12.52;;;;;;;;;;5059087;28;20025;-68
2023/10/25 10:42:01;;;;;;;13.55;12.90;;;;;;;;;;5054632;28;20043;-68
2023/10/25 10:44:29;;;;;;;12.95;12.35;;;;;;;;;;5061068;28;20040;-69
2023/10/25 10:46:57;;;;;;;13.18;12.57;;;;;;;;;;5056250;28;20024;-70
2023/10/25 10:49:27;;;;;;;13.93;13.23;;;;;;;;;;5056131;28;20044;-68
2023/10/25 10:51:54;;;;;;;13.27;12.68;;;;;;;;;;5058117;28;20021;-66
2023/10/25 10:54:20;;;;;;;12.63;12.02;;;;;;;;;;5059424;28;20025;-67
2023/10/25 10:56:46;;;;;;;12.93;12.32;;;;;;;;;;5053265;28;20240;-66
2023/10/25 10:59:11;;;;;;;12.40;11.80;;;;;;;;;;5055686;28;20524;-67
2023/10/25 11:01:37;;;;;;;12.40;11.80;;;;;;;;;;5057744;28;20025;-67
2023/10/25 11:04:02;;;;;;;12.93;12.32;;;;;;;;;;5056546;28;20029;-66
2023/10/25 11:06:27;;;;;;;12.98;12.38;;;;;;;;;;5059205;28;20397;-66
2023/10/25 11:08:53;;;;;;;13.00;12.40;;;;;;;;;;5064009;28;20020;-67
2023/10/25 11:11:21;;;;;;;13.38;12.77;;;;;;;;;;5051938;28;20023;-68
2023/10/25 11:13:49;;;;;;;13.10;12.50;;;;;;;;;;5060546;28;20048;-69
2023/10/25 11:16:15;;;;;;;12.45;11.85;;;;;;;;;;5057039;28;20138;-66
2023/10/25 11:18:40;;;;;;;12.68;12.07;;;;;;;;;;5053749;28;20103;-67
2023/10/25 11:21:06;;;;;;;12.90;12.30;;;;;;;;;;5056254;28;20025;-68
2023/10/25 11:23:31;;;;;;;13.57;12.93;;;;;;;;;;5058381;28;21076;-67
2023/10/25 11:25:56;;;;;;;13.20;12.60;;;;;;;;;;5058925;28;20035;-66
2023/10/25 11:28:23;;;;;;;12.43;11.82;;;;;;;;;;5060015;28;20037;-65
2023/10/25 11:30:50;;;;;;;14.07;13.38;;;;;;;;;;5054932;28;20086;-67
2023/10/25 11:33:15;;;;;;;12.30;11.70;;;;;;;;;;5060617;28;20059;-66
2023/10/25 11:35:42;;;;;;;12.90;12.30;;;;;;;;;;5057161;28;20096;-68
2023/10/25 11:38:07;;;;;;;13.25;12.65;;;;;;;;;;5063515;28;20021;-68
2023/10/25 11:40:35;;;;;;;12.75;12.15;;;;;;;;;;5057019;28;20500;-69
2023/10/25 11:43:01;;;;;;;12.32;11.73;;;;;;;;;;5062412;28;20078;-68
2023/10/25 11:45:26;;;;;;;12.63;12.02;;;;;;;;;;5052174;28;20362;-66
2023/10/25 11:47:54;;;;;;;13.00;12.40;;;;;;;;;;5053976;28;20059;-67
2023/10/25 11:50:19;;;;;;;13.02;12.43;;;;;;;;;;5058811;28;20043;-67
2023/10/25 11:52:45;;;;;;;12.57;11.98;;;;;;;;;;5059923;28;20041;-67
2023/10/25 11:55:10;;;;;;;13.85;13.15;;;;;;;;;;5057684;28;20837;-69
2023/10/25 11:57:35;;;;;;;12.73;12.13;;;;;;;;;;5054245;28;20040;-67
2023/10/25 12:00:01;;;;;;;13.88;13.18;;;;;;;;;;5056126;28;20041;-67
2023/10/25 12:02:27;;;;;;;12.60;12.00;;;;;;;;;;5050692;28;20025;-66
2023/10/25 12:04:53;;;;;;;13.00;12.40;;;;;;;;;;5059446;28;20017;-66
2023/10/25 12:07:21;;;;;;;12.90;12.30;;;;;;;;;;5054233;28;20107;-67
2023/10/25 12:09:46;;;;;;;13.70;13.07;;;;;;;;;;5058276;28;20017;-67
2023/10/25 12:12:11;;;;;;;13.18;12.57;;;;;;;;;;5056409;28;20074;-68
2023/10/25 12:14:37;;;;;;;13.10;12.50;;;;;;;;;;5065583;28;20037;-68
2023/10/25 12:17:03;;;;;;;12.68;12.07;;;;;;;;;;5062012;28;20095;-69
2023/10/25 12:19:28;;;;;;;12.55;11.95;;;;;;;;;;5065085;28;20056;-66
2023/10/25 12:21:56;;;;;;;12.73;12.13;;;;;;;;;;5057317;28;20092;-65
2023/10/25 12:24:21;;;;;;;12.85;12.25;;;;;;;;;;5064108;28;20036;-66
2023/10/25 12:26:47;;;;;;;13.13;12.52;;;;;;;;;;5058130;28;20035;-66
2023/10/25 12:29:12;;;;;;;12.68;12.07;;;;;;;;;;5067092;28;20048;-65
2023/10/25 12:31:37;;;;;;;12.23;11.63;;;;;;;;;;5068192;28;20052;-65
2023/10/25 12:34:03;;;;;;;13.55;12.95;;;;;;;;;;5062869;28;20055;-67
2023/10/25 12:36:28;;;;;;;13.00;12.40;;;;;;;;;;5062822;28;20069;-67
2023/10/25 12:38:54;;;;;;;13.52;12.93;;;;;;;;;;5058699;28;20033;-66
2023/10/25 12:41:19;;;;;;;12.55;11.95;;;;;;;;;;5064465;28;20036;-67
2023/10/25 12:43:44;;;;;;;11.50;11.00;;;;;;;;;;5064512;28;20025;-67
2023/10/25 12:46:09;;;;;;;13.05;12.45;;;;;;;;;;5057768;28;20075;-67
2023/10/25 12:48:36;;;;;;;13.35;12.75;;;;;;;;;;5057209;28;20033;-67
2023/10/25 12:51:01;;;;;;;13.77;13.10;;;;;;;;;;5054552;28;20067;-67
2023/10/25 12:53:26;;;;;;;12.57;11.98;;;;;;;;;;5059389;28;20060;-65
2023/10/25 12:55:52;;;;;;;13.88;13.20;;;;;;;;;;5056241;28;20021;-66
2023/10/25 12:58:17;;;;;;;13.32;12.73;;;;;;;;;;5053304;28;20024;-66
2023/10/25 13:00:43;;;;;;;12.13;11.63;;;;;;;;;;5060112;28;20057;-66
2023/10/25 13:03:08;;;;;;;13.35;12.75;;;;;;;;;;5061321;28;20021;-66
2023/10/25 13:05:33;;;;;;;12.50;11.90;;;;;;;;;;5064432;28;20035;-66
2023/10/25 13:07:59;;;;;;;12.80;12.20;;;;;;;;;;5055923;28;20374;-67
2023/10/25 13:10:25;;;;;;;13.38;12.77;;;;;;;;;;5059275;28;20016;-66
2023/10/25 13:12:50;;;;;;;13.10;12.50;;;;;;;;;;5057738;28;20438;-67
2023/10/25 13:15:16;;;;;;;12.55;11.95;;;;;;;;;;5055234;28;20044;-68
2023/10/25 13:17:41;;;;;;;13.98;13.27;;;;;;;;;;5058358;28;20031;-68
2023/10/25 13:20:08;;;;;;;12.82;12.23;;;;;;;;;;5060422;28;20024;-67
2023/10/25 13:22:34;;;;;;;13.20;12.60;;;;;;;;;;5052610;28;20085;-68
2023/10/25 13:24:59;;;;;;;12.73;12.13;;;;;;;;;;5061176;28;20112;-67
2023/10/25 13:27:25;;;;;;;12.93;12.32;;;;;;;;;;5060305;28;20028;-66
2023/10/25 13:29:52;;;;;;;13.35;12.75;;;;;;;;;;5060491;28;20043;-66
2023/10/25 13:32:17;;;;;;;12.75;12.15;;;;;;;;;;5069004;28;20036;-66
2023/10/25 13:34:44;;;;;;;12.70;12.10;;;;;;;;;;5054534;28;20484;-67
2023/10/25 13:37:09;;;;;;;12.90;12.30;;;;;;;;;;5060922;28;20016;-67
2023/10/25 13:39:35;;;;;;;12.80;12.20;;;;;;;;;;5063055;28;20128;-68
2023/10/25 13:42:00;;;;;;;13.32;12.73;;;;;;;;;;5064053;28;20035;-68
2023/10/25 13:44:25;;;;;;;13.32;12.73;;;;;;;;;;5060118;28;20401;-67
2023/10/25 13:46:51;;;;;;;12.65;12.05;;;;;;;;;;5057124;28;20489;-66
2023/10/25 13:49:16;;;;;;;13.52;12.93;;;;;;;;;;5057922;28;20098;-69
2023/10/25 13:51:41;;;;;;;13.05;12.45;;;;;;;;;;5055965;28;20020;-68
2023/10/25 13:54:07;;;;;;;13.07;12.48;;;;;;;;;;5053564;28;20040;-67
2023/10/25 13:56:32;;;;;;;12.93;12.32;;;;;;;;;;5060845;28;20517;-69
2023/10/25 13:58:57;;;;;;;13.15;12.55;;;;;;;;;;5063263;28;20491;-69
2023/10/25 14:01:23;;;;;;;12.57;11.98;;;;;;;;;;5058655;28;20561;-67
2023/10/25 14:03:48;;;;;;;12.93;12.32;;;;;;;;;;5055249;28;20490;-68
2023/10/25 14:06:14;;;;;;;13.02;12.43;;;;;;;;;;5062825;28;20032;-67
2023/10/25 14:08:39;;;;;;;13.05;12.45;;;;;;;;;;5064262;28;20500;-66